Time;durP1;ratioP1;P1;durP2;ratioP2;P2;SDS_P1;SDS_P2;PMS_P1;PMS_P2;Temp;Humidity;BMP_temperature;BMP_pressure;BME280_temperature;BME280_humidity;BME280_pressure;Samples;Min_cycle;Max_cycle;Signal;HPM_P1;HPM_P2
2023/05/10 00:00:48;;;;;;;34.90;32.70;;;;;;;;;;5058349;28;20859;-84
2023/05/10 00:03:15;;;;;;;34.17;31.73;;;;;;;;;;5059246;28;20422;-84
2023/05/10 00:05:42;;;;;;;34.57;32.03;;;;;;;;;;5058036;28;20445;-84
2023/05/10 00:08:10;;;;;;;33.27;31.10;;;;;;;;;;5059009;28;20543;-83
2023/05/10 00:10:38;;;;;;;33.90;31.70;;;;;;;;;;5058365;28;20486;-83
2023/05/10 00:13:05;;;;;;;37.10;34.50;;;;;;;;;;5058550;28;20927;-83
2023/05/10 00:15:32;;;;;;;36.70;34.10;;;;;;;;;;5058637;28;20854;-81
2023/05/10 00:17:59;;;;;;;36.30;33.80;;;;;;;;;;5058480;28;20475;-82
2023/05/10 00:20:26;;;;;;;35.27;32.93;;;;;;;;;;5058656;28;20522;-83
2023/05/10 00:22:53;;;;;;;36.37;33.97;;;;;;;;;;5057840;28;20520;-83
2023/05/10 00:25:22;;;;;;;38.30;35.70;;;;;;;;;;5058564;28;20451;-83
2023/05/10 00:27:49;;;;;;;39.47;36.77;;;;;;;;;;5056956;28;20435;-82
2023/05/10 00:30:16;;;;;;;38.60;35.83;;;;;;;;;;5057994;28;20855;-82
2023/05/10 00:32:44;;;;;;;40.90;37.97;;;;;;;;;;5058264;28;20402;-82
2023/05/10 00:35:11;;;;;;;39.80;37.10;;;;;;;;;;5058094;28;20480;-83
2023/05/10 00:37:38;;;;;;;40.93;38.03;;;;;;;;;;5057150;28;20873;-83
2023/05/10 00:40:05;;;;;;;41.10;38.47;;;;;;;;;;5057321;28;20458;-83
2023/05/10 00:42:34;;;;;;;43.27;40.47;;;;;;;;;;5057787;28;20951;-82
2023/05/10 00:45:01;;;;;;;40.00;37.37;;;;;;;;;;5057671;28;20425;-83
2023/05/10 00:47:28;;;;;;;40.67;37.27;;;;;;;;;;5056912;28;20433;-83
2023/05/10 00:49:56;;;;;;;38.43;35.93;;;;;;;;;;5057421;28;20978;-83
2023/05/10 00:52:23;;;;;;;39.77;37.07;;;;;;;;;;5056673;28;20524;-83
2023/05/10 00:54:51;;;;;;;41.00;38.20;;;;;;;;;;5057481;28;20410;-83
2023/05/10 00:57:18;;;;;;;41.60;38.60;;;;;;;;;;5057023;28;20508;-82
2023/05/10 00:59:46;;;;;;;42.30;38.80;;;;;;;;;;5057183;28;20452;-83
2023/05/10 01:02:14;;;;;;;44.47;40.67;;;;;;;;;;5057413;28;20482;-83
2023/05/10 01:04:41;;;;;;;42.40;39.20;;;;;;;;;;5056949;28;20421;-83
2023/05/10 01:07:08;;;;;;;42.30;39.07;;;;;;;;;;5056240;28;20517;-83
2023/05/10 01:09:35;;;;;;;42.10;39.03;;;;;;;;;;5056952;28;20470;-83
2023/05/10 01:12:03;;;;;;;42.17;39.20;;;;;;;;;;5056830;28;20493;-83
2023/05/10 01:14:31;;;;;;;41.37;38.37;;;;;;;;;;5057397;28;20471;-83
2023/05/10 01:17:00;;;;;;;44.73;41.37;;;;;;;;;;5056341;28;20447;-83
2023/05/10 01:19:28;;;;;;;43.83;40.73;;;;;;;;;;5056964;28;20507;-82
2023/05/10 01:21:59;;;;;;;45.93;42.43;;;;;;;;;;5056788;28;20553;-83
2023/05/10 01:24:41;;;;;;;49.67;45.27;;;;;;;;;;5056806;28;20488;-83
2023/05/10 01:27:18;;;;;;;47.30;43.70;;;;;;;;;;5055916;28;20412;-82
2023/05/10 01:30:01;;;;;;;48.00;44.50;;;;;;;;;;5056377;28;20945;-83
2023/05/10 01:32:37;;;;;;;49.03;45.40;;;;;;;;;;5056713;28;20406;-82
2023/05/10 01:35:05;;;;;;;51.20;47.43;;;;;;;;;;5056542;28;20524;-82
2023/05/10 01:37:38;;;;;;;50.03;46.27;;;;;;;;;;5056040;28;20493;-83
2023/05/10 01:40:09;;;;;;;52.70;49.20;;;;;;;;;;5055813;28;20478;-82
2023/05/10 01:42:40;;;;;;;53.80;49.83;;;;;;;;;;5056253;28;20474;-81
2023/05/10 01:45:13;;;;;;;52.50;48.70;;;;;;;;;;5056104;28;20447;-83
2023/05/10 01:47:43;;;;;;;52.83;48.97;;;;;;;;;;5055918;28;20409;-81
2023/05/10 01:50:12;;;;;;;56.63;52.63;;;;;;;;;;5055599;28;20497;-81
2023/05/10 01:52:43;;;;;;;63.20;58.33;;;;;;;;;;5056269;28;20426;-81
2023/05/10 01:55:12;;;;;;;60.03;56.03;;;;;;;;;;5056020;28;20412;-83
2023/05/10 01:57:40;;;;;;;60.90;56.50;;;;;;;;;;5055870;28;20425;-82
2023/05/10 02:00:09;;;;;;;84.80;79.77;;;;;;;;;;5055355;28;20494;-81
2023/05/10 02:02:38;;;;;;;76.70;72.50;;;;;;;;;;5055945;28;20486;-81
2023/05/10 02:05:08;;;;;;;69.30;65.50;;;;;;;;;;5055985;28;20422;-82
2023/05/10 02:07:36;;;;;;;70.20;66.33;;;;;;;;;;5055410;28;20983;-82
2023/05/10 02:10:04;;;;;;;66.90;63.10;;;;;;;;;;5056013;28;20461;-82
2023/05/10 02:12:31;;;;;;;61.70;58.30;;;;;;;;;;5056178;28;20446;-83
2023/05/10 02:14:59;;;;;;;66.70;62.90;;;;;;;;;;5056160;28;20447;-82
2023/05/10 02:17:26;;;;;;;68.10;64.37;;;;;;;;;;5055588;28;20508;-81
2023/05/10 02:19:55;;;;;;;71.27;67.37;;;;;;;;;;5055748;28;20453;-82
2023/05/10 02:22:23;;;;;;;68.23;64.23;;;;;;;;;;5058862;28;20878;-83
2023/05/10 02:24:51;;;;;;;70.93;66.87;;;;;;;;;;5057770;28;20414;-82
2023/05/10 02:27:19;;;;;;;69.37;65.33;;;;;;;;;;5059469;28;20447;-82
2023/05/10 02:29:46;;;;;;;74.67;70.10;;;;;;;;;;5075845;28;20442;-81
2023/05/10 02:32:14;;;;;;;74.13;70.00;;;;;;;;;;5076818;28;20421;-81
2023/05/10 02:34:42;;;;;;;56.13;52.60;;;;;;;;;;5074592;28;20468;-83
2023/05/10 02:37:09;;;;;;;54.43;51.00;;;;;;;;;;5056318;28;20409;-83
2023/05/10 02:39:40;;;;;;;55.30;51.90;;;;;;;;;;5056515;28;20467;-83
2023/05/10 02:42:07;;;;;;;54.57;51.43;;;;;;;;;;5056233;28;20460;-84
2023/05/10 02:44:35;;;;;;;53.80;50.57;;;;;;;;;;5056395;28;20455;-83
2023/05/10 02:47:03;;;;;;;54.50;51.17;;;;;;;;;;5055720;28;20446;-83
2023/05/10 02:49:30;;;;;;;54.43;51.17;;;;;;;;;;5056662;28;20845;-82
2023/05/10 02:52:00;;;;;;;55.20;52.03;;;;;;;;;;5059404;28;20441;-83
2023/05/10 02:54:30;;;;;;;50.17;47.07;;;;;;;;;;5060205;28;20492;-82
2023/05/10 02:57:01;;;;;;;53.13;49.87;;;;;;;;;;5059396;28;20982;-83
2023/05/10 02:59:28;;;;;;;50.43;47.30;;;;;;;;;;5060157;28;20468;-83
2023/05/10 03:01:55;;;;;;;49.80;46.77;;;;;;;;;;5059742;28;20996;-82
2023/05/10 03:04:22;;;;;;;44.20;41.60;;;;;;;;;;5060146;28;20455;-82
2023/05/10 03:06:49;;;;;;;48.60;45.53;;;;;;;;;;5059418;28;20910;-84
2023/05/10 03:09:16;;;;;;;49.10;46.07;;;;;;;;;;5060139;28;20504;-82
2023/05/10 03:11:51;;;;;;;48.53;45.20;;;;;;;;;;5059504;28;20497;-82
2023/05/10 03:14:23;;;;;;;48.67;45.37;;;;;;;;;;5063804;28;20473;-83
2023/05/10 03:16:54;;;;;;;48.33;44.73;;;;;;;;;;5064290;28;20483;-82
2023/05/10 03:19:25;;;;;;;49.63;46.00;;;;;;;;;;5064033;28;21031;-82
2023/05/10 03:21:54;;;;;;;49.00;45.73;;;;;;;;;;5059348;28;20583;-83
2023/05/10 03:24:22;;;;;;;50.77;47.23;;;;;;;;;;5059390;28;20422;-82
2023/05/10 03:26:50;;;;;;;50.17;46.43;;;;;;;;;;5059061;28;20516;-82
2023/05/10 03:29:18;;;;;;;49.93;46.67;;;;;;;;;;5058177;28;20475;-82
2023/05/10 03:31:46;;;;;;;47.77;44.30;;;;;;;;;;5059157;28;20431;-82
2023/05/10 03:34:13;;;;;;;48.10;45.00;;;;;;;;;;5059358;28;20454;-83
2023/05/10 03:36:40;;;;;;;46.00;43.10;;;;;;;;;;5057766;28;20914;-82
2023/05/10 03:39:07;;;;;;;47.60;44.40;;;;;;;;;;5058489;28;20437;-82
2023/05/10 03:41:34;;;;;;;47.23;44.23;;;;;;;;;;5059235;28;20457;-82
2023/05/10 03:44:01;;;;;;;44.23;41.53;;;;;;;;;;5058670;28;20414;-82
2023/05/10 03:46:28;;;;;;;47.23;43.93;;;;;;;;;;5058116;28;20906;-83
2023/05/10 03:48:56;;;;;;;43.97;40.97;;;;;;;;;;5058917;28;20470;-82
2023/05/10 03:51:27;;;;;;;44.70;41.80;;;;;;;;;;5058414;28;20417;-82
2023/05/10 03:53:54;;;;;;;44.90;42.03;;;;;;;;;;5058366;28;20435;-82
2023/05/10 03:56:21;;;;;;;46.03;42.97;;;;;;;;;;5057715;28;20421;-82
2023/05/10 03:58:48;;;;;;;41.27;38.57;;;;;;;;;;5058127;28;20485;-81
2023/05/10 04:01:15;;;;;;;39.50;37.10;;;;;;;;;;5057915;28;20448;-81
2023/05/10 04:03:42;;;;;;;40.00;37.70;;;;;;;;;;5058465;28;20456;-81
2023/05/10 04:06:11;;;;;;;38.53;36.40;;;;;;;;;;5057681;28;20441;-84
2023/05/10 04:08:38;;;;;;;37.93;36.03;;;;;;;;;;5058061;28;20459;-83
2023/05/10 04:11:09;;;;;;;34.13;32.47;;;;;;;;;;5057914;28;20930;-82
2023/05/10 04:13:36;;;;;;;34.97;33.27;;;;;;;;;;5058169;28;20425;-82
2023/05/10 04:16:03;;;;;;;32.47;30.90;;;;;;;;;;5057203;28;20490;-82
2023/05/10 04:18:30;;;;;;;32.80;31.20;;;;;;;;;;5058044;28;20765;-83
2023/05/10 04:20:57;;;;;;;30.30;28.90;;;;;;;;;;5058082;28;20475;-84
2023/05/10 04:23:25;;;;;;;31.90;30.40;;;;;;;;;;5058629;28;20457;-82
2023/05/10 04:25:52;;;;;;;31.83;30.40;;;;;;;;;;5057986;28;20471;-80
2023/05/10 04:28:19;;;;;;;36.20;34.50;;;;;;;;;;5060864;28;20913;-81
2023/05/10 04:30:46;;;;;;;36.40;34.80;;;;;;;;;;5061142;28;20514;-80
2023/05/10 04:33:14;;;;;;;35.33;33.47;;;;;;;;;;5060888;28;20967;-81
2023/05/10 04:35:41;;;;;;;34.27;32.67;;;;;;;;;;5060133;28;20992;-81
2023/05/10 04:38:08;;;;;;;33.03;31.53;;;;;;;;;;5060641;28;20455;-80
2023/05/10 04:40:36;;;;;;;31.47;30.07;;;;;;;;;;5059987;28;20442;-81
2023/05/10 04:43:03;;;;;;;33.97;32.47;;;;;;;;;;5060505;28;20457;-80
2023/05/10 04:45:30;;;;;;;36.10;34.40;;;;;;;;;;5061077;28;20460;-82
2023/05/10 04:47:57;;;;;;;36.40;34.60;;;;;;;;;;5062588;28;20453;-82
2023/05/10 04:50:24;;;;;;;35.47;33.77;;;;;;;;;;5062910;28;20471;-82
2023/05/10 04:52:51;;;;;;;37.30;35.40;;;;;;;;;;5062130;28;20425;-82
2023/05/10 04:55:18;;;;;;;38.03;36.23;;;;;;;;;;5061234;28;20421;-82
2023/05/10 04:57:47;;;;;;;37.07;35.37;;;;;;;;;;5060486;28;20425;-82
2023/05/10 05:00:14;;;;;;;38.40;36.60;;;;;;;;;;5063070;28;20446;-82
2023/05/10 05:02:44;;;;;;;41.63;39.63;;;;;;;;;;5081360;28;20508;-81
2023/05/10 05:05:11;;;;;;;40.03;38.03;;;;;;;;;;5080813;28;20894;-82
2023/05/10 05:07:38;;;;;;;38.90;37.07;;;;;;;;;;5080209;28;20795;-81
2023/05/10 05:10:06;;;;;;;40.47;38.37;;;;;;;;;;5080061;28;20580;-81
2023/05/10 05:12:33;;;;;;;39.30;37.33;;;;;;;;;;5080422;28;20420;-81
2023/05/10 05:15:01;;;;;;;39.47;37.57;;;;;;;;;;5081059;28;20447;-82
2023/05/10 05:17:28;;;;;;;41.73;39.40;;;;;;;;;;5080160;28;20478;-82
2023/05/10 05:19:55;;;;;;;39.00;37.10;;;;;;;;;;5080469;28;20482;-83
2023/05/10 05:22:27;;;;;;;38.93;36.93;;;;;;;;;;5080713;28;20950;-82
2023/05/10 05:24:54;;;;;;;37.30;35.50;;;;;;;;;;5081011;28;20416;-82
2023/05/10 05:27:23;;;;;;;34.03;32.43;;;;;;;;;;5079856;28;20503;-82
2023/05/10 05:29:50;;;;;;;40.53;38.43;;;;;;;;;;5079118;28;20964;-82
2023/05/10 05:32:19;;;;;;;38.10;36.20;;;;;;;;;;5080843;28;20446;-82
2023/05/10 05:34:46;;;;;;;37.53;35.53;;;;;;;;;;5079825;28;20417;-81
2023/05/10 05:37:14;;;;;;;37.83;35.93;;;;;;;;;;5079857;28;20800;-81
2023/05/10 05:39:42;;;;;;;35.63;33.73;;;;;;;;;;5079491;28;20948;-80
2023/05/10 05:42:09;;;;;;;34.03;32.33;;;;;;;;;;5080008;28;21001;-81
2023/05/10 05:44:36;;;;;;;34.73;33.13;;;;;;;;;;5078965;28;20866;-82
2023/05/10 05:47:03;;;;;;;34.83;33.20;;;;;;;;;;5078980;28;20424;-81
2023/05/10 05:49:31;;;;;;;35.20;33.50;;;;;;;;;;5079188;28;20439;-78
2023/05/10 05:52:00;;;;;;;34.57;32.87;;;;;;;;;;5065739;28;20934;-80
2023/05/10 05:54:27;;;;;;;35.03;33.23;;;;;;;;;;5071747;28;20471;-78
2023/05/10 05:56:55;;;;;;;34.50;32.90;;;;;;;;;;5075766;28;20472;-79
2023/05/10 05:59:22;;;;;;;34.70;33.10;;;;;;;;;;5072732;28;20449;-80
2023/05/10 06:01:49;;;;;;;34.83;33.10;;;;;;;;;;5081187;28;20479;-80
2023/05/10 06:04:16;;;;;;;36.10;34.30;;;;;;;;;;5081170;28;20810;-79
2023/05/10 06:06:45;;;;;;;35.50;33.80;;;;;;;;;;5081257;28;20486;-80
2023/05/10 06:09:12;;;;;;;34.23;32.53;;;;;;;;;;5079954;28;20555;-80
2023/05/10 06:11:39;;;;;;;33.33;31.83;;;;;;;;;;5080261;28;20424;-78
2023/05/10 06:14:07;;;;;;;34.20;32.43;;;;;;;;;;5081751;28;20450;-80
2023/05/10 06:16:34;;;;;;;35.23;33.40;;;;;;;;;;5081050;28;20424;-79
2023/05/10 06:19:02;;;;;;;35.27;33.23;;;;;;;;;;5081380;28;20458;-79
2023/05/10 06:21:29;;;;;;;33.23;31.63;;;;;;;;;;5080276;28;20425;-80
2023/05/10 06:23:57;;;;;;;32.83;31.23;;;;;;;;;;5083033;28;20472;-80
2023/05/10 06:26:24;;;;;;;35.43;33.63;;;;;;;;;;5087323;28;20408;-80
2023/05/10 06:28:51;;;;;;;33.33;31.73;;;;;;;;;;5086091;28;21029;-80
2023/05/10 06:31:18;;;;;;;35.80;34.13;;;;;;;;;;5084149;28;20420;-81
2023/05/10 06:33:45;;;;;;;36.07;34.27;;;;;;;;;;5085287;28;20817;-80
2023/05/10 06:36:13;;;;;;;36.57;34.77;;;;;;;;;;5083840;28;20440;-81
2023/05/10 06:38:40;;;;;;;38.00;36.00;;;;;;;;;;5084515;28;20446;-80
2023/05/10 06:41:08;;;;;;;34.53;32.83;;;;;;;;;;5083943;28;20935;-80
2023/05/10 06:43:36;;;;;;;34.70;32.80;;;;;;;;;;5084517;28;20486;-79
2023/05/10 06:46:03;;;;;;;33.87;32.17;;;;;;;;;;5083712;28;20547;-79
2023/05/10 06:48:30;;;;;;;33.53;31.73;;;;;;;;;;5084184;28;20541;-79
2023/05/10 06:50:57;;;;;;;34.50;32.70;;;;;;;;;;5085594;28;20811;-81
2023/05/10 06:53:24;;;;;;;35.30;33.43;;;;;;;;;;5086285;28;20810;-80
2023/05/10 06:55:51;;;;;;;35.30;33.50;;;;;;;;;;5087112;28;20494;-80
2023/05/10 06:58:20;;;;;;;34.10;32.40;;;;;;;;;;5087039;28;20532;-80
2023/05/10 07:00:47;;;;;;;32.87;31.17;;;;;;;;;;5086762;28;20492;-79
2023/05/10 07:03:14;;;;;;;33.87;32.00;;;;;;;;;;5088016;28;20462;-81
2023/05/10 07:05:41;;;;;;;35.50;33.60;;;;;;;;;;5084243;28;20431;-80
2023/05/10 07:08:08;;;;;;;33.50;31.80;;;;;;;;;;5084763;28;20424;-80
2023/05/10 07:10:35;;;;;;;33.00;31.40;;;;;;;;;;5081990;28;20436;-80
2023/05/10 07:13:02;;;;;;;34.07;32.27;;;;;;;;;;5083931;28;20857;-79
2023/05/10 07:15:30;;;;;;;32.47;30.83;;;;;;;;;;5087738;28;20424;-79
2023/05/10 07:17:57;;;;;;;34.60;32.67;;;;;;;;;;5085663;28;20449;-79
2023/05/10 07:20:24;;;;;;;34.87;32.97;;;;;;;;;;5086102;28;20445;-80
2023/05/10 07:22:51;;;;;;;35.83;33.80;;;;;;;;;;5085483;28;20456;-80
2023/05/10 07:25:18;;;;;;;33.30;31.27;;;;;;;;;;5086878;28;20965;-79
2023/05/10 07:27:48;;;;;;;34.17;32.07;;;;;;;;;;5084784;28;20412;-79
2023/05/10 07:30:15;;;;;;;30.70;28.90;;;;;;;;;;5084001;28;20494;-78
2023/05/10 07:32:43;;;;;;;31.33;29.53;;;;;;;;;;5089004;28;20428;-78
2023/05/10 07:35:10;;;;;;;34.17;32.20;;;;;;;;;;5099486;28;20417;-79
2023/05/10 07:37:37;;;;;;;39.30;36.30;;;;;;;;;;5097669;28;20472;-79
2023/05/10 07:40:05;;;;;;;36.13;33.93;;;;;;;;;;5091625;28;20466;-80
2023/05/10 07:42:32;;;;;;;34.23;32.23;;;;;;;;;;5085675;28;20502;-80
2023/05/10 07:44:59;;;;;;;35.03;32.83;;;;;;;;;;5086572;28;20453;-80
2023/05/10 07:47:26;;;;;;;35.30;32.90;;;;;;;;;;5085054;28;20996;-80
2023/05/10 07:49:55;;;;;;;32.63;30.73;;;;;;;;;;5085753;28;20424;-80
2023/05/10 07:52:22;;;;;;;33.67;31.60;;;;;;;;;;5085367;28;20811;-79
2023/05/10 07:54:49;;;;;;;33.63;31.53;;;;;;;;;;5085540;28;20428;-80
2023/05/10 07:57:17;;;;;;;37.50;34.90;;;;;;;;;;5085113;28;20503;-80
2023/05/10 07:59:44;;;;;;;31.93;29.73;;;;;;;;;;5084663;28;20465;-79
2023/05/10 08:02:11;;;;;;;33.53;31.20;;;;;;;;;;5084787;28;20425;-79
2023/05/10 08:04:38;;;;;;;36.43;33.80;;;;;;;;;;5084570;28;20497;-78
2023/05/10 08:07:07;;;;;;;35.53;32.80;;;;;;;;;;5084559;28;20416;-79
2023/05/10 08:09:34;;;;;;;35.57;32.90;;;;;;;;;;5084820;28;20523;-79
2023/05/10 08:12:01;;;;;;;34.47;31.77;;;;;;;;;;5084512;28;20442;-79
2023/05/10 08:14:29;;;;;;;35.60;32.63;;;;;;;;;;5085457;28;20436;-80
2023/05/10 08:16:57;;;;;;;35.83;32.93;;;;;;;;;;5084469;28;20458;-79
2023/05/10 08:19:24;;;;;;;34.90;32.10;;;;;;;;;;5085090;28;20552;-82
2023/05/10 08:21:51;;;;;;;35.50;32.73;;;;;;;;;;5085460;28;20454;-80
2023/05/10 08:24:19;;;;;;;37.33;34.03;;;;;;;;;;5084625;28;20503;-80
2023/05/10 08:26:47;;;;;;;32.67;29.77;;;;;;;;;;5083146;28;20449;-80
2023/05/10 08:29:14;;;;;;;35.47;32.13;;;;;;;;;;5083043;28;21029;-81
2023/05/10 08:31:41;;;;;;;33.70;30.63;;;;;;;;;;5083901;28;20431;-80
2023/05/10 08:34:08;;;;;;;36.40;33.07;;;;;;;;;;5082852;28;20436;-80
2023/05/10 08:36:36;;;;;;;34.30;31.40;;;;;;;;;;5084248;28;20454;-80
2023/05/10 08:39:03;;;;;;;33.37;30.60;;;;;;;;;;5085449;28;20483;-83
2023/05/10 08:41:31;;;;;;;33.47;30.70;;;;;;;;;;5085164;28;20470;-80
2023/05/10 08:43:58;;;;;;;32.17;29.23;;;;;;;;;;5083864;28;20468;-81
2023/05/10 08:46:25;;;;;;;34.77;31.50;;;;;;;;;;5084381;28;20449;-80
2023/05/10 08:48:52;;;;;;;30.20;27.90;;;;;;;;;;5084235;28;20452;-80
2023/05/10 08:51:21;;;;;;;33.53;30.90;;;;;;;;;;5086829;28;20504;-80
2023/05/10 08:53:48;;;;;;;35.03;32.20;;;;;;;;;;5086313;28;20424;-80
2023/05/10 08:56:17;;;;;;;34.20;31.33;;;;;;;;;;5085481;28;20830;-81
2023/05/10 08:58:46;;;;;;;35.73;32.63;;;;;;;;;;5085562;28;20674;-80
2023/05/10 09:01:14;;;;;;;32.77;29.97;;;;;;;;;;5084330;28;20404;-79
2023/05/10 09:03:41;;;;;;;35.30;32.40;;;;;;;;;;5084795;28;20969;-80
2023/05/10 09:06:08;;;;;;;34.73;31.83;;;;;;;;;;5083411;28;20515;-80
2023/05/10 09:08:36;;;;;;;35.40;32.50;;;;;;;;;;5084151;28;20428;-80
2023/05/10 09:11:03;;;;;;;34.10;31.50;;;;;;;;;;5084137;28;20519;-80
2023/05/10 09:13:30;;;;;;;35.83;32.60;;;;;;;;;;5083213;28;20494;-81
2023/05/10 09:15:58;;;;;;;35.67;32.77;;;;;;;;;;5082629;28;20440;-80
2023/05/10 09:18:25;;;;;;;35.50;32.73;;;;;;;;;;5083628;28;20432;-81
2023/05/10 09:20:52;;;;;;;32.67;29.97;;;;;;;;;;5083379;28;20499;-80
2023/05/10 09:23:19;;;;;;;33.70;31.10;;;;;;;;;;5083162;28;20502;-80
2023/05/10 09:25:46;;;;;;;35.33;32.30;;;;;;;;;;5082465;28;20519;-81
2023/05/10 09:28:13;;;;;;;31.77;29.27;;;;;;;;;;5084362;28;20441;-81
2023/05/10 09:30:42;;;;;;;35.00;31.90;;;;;;;;;;5084735;28;20440;-80
2023/05/10 09:33:11;;;;;;;35.27;32.47;;;;;;;;;;5082211;28;20763;-79
2023/05/10 09:35:39;;;;;;;36.67;33.17;;;;;;;;;;5082465;28;20486;-80
2023/05/10 09:38:06;;;;;;;34.97;31.93;;;;;;;;;;5083788;28;20434;-79
2023/05/10 09:40:34;;;;;;;33.83;30.80;;;;;;;;;;5082961;28;20450;-80
2023/05/10 09:43:01;;;;;;;35.70;32.20;;;;;;;;;;5082800;28;20428;-80
2023/05/10 09:45:29;;;;;;;35.77;32.57;;;;;;;;;;5082197;28;20454;-80
2023/05/10 09:47:56;;;;;;;35.10;32.00;;;;;;;;;;5083166;28;20410;-80
2023/05/10 09:50:25;;;;;;;33.80;30.90;;;;;;;;;;5082380;28;20977;-80
2023/05/10 09:52:53;;;;;;;34.57;31.20;;;;;;;;;;5081096;28;20476;-78
2023/05/10 09:55:21;;;;;;;33.97;31.00;;;;;;;;;;5082719;28;20886;-79
2023/05/10 09:57:49;;;;;;;32.80;30.10;;;;;;;;;;5080968;28;20448;-80
2023/05/10 10:00:20;;;;;;;34.70;31.63;;;;;;;;;;5082208;28;20888;-80
2023/05/10 10:02:47;;;;;;;31.43;28.83;;;;;;;;;;5082539;28;20471;-80
2023/05/10 10:05:15;;;;;;;32.43;29.73;;;;;;;;;;5083025;28;20474;-80
2023/05/10 10:07:43;;;;;;;32.63;29.73;;;;;;;;;;5083305;28;20478;-80
2023/05/10 10:10:12;;;;;;;31.43;28.53;;;;;;;;;;5082880;28;20516;-80
2023/05/10 10:12:39;;;;;;;31.40;28.80;;;;;;;;;;5083230;28;20537;-80
2023/05/10 10:15:08;;;;;;;33.20;30.43;;;;;;;;;;5082732;28;20905;-81
2023/05/10 10:17:37;;;;;;;32.03;29.43;;;;;;;;;;5081745;28;20439;-80
2023/05/10 10:20:04;;;;;;;28.83;26.63;;;;;;;;;;5082106;28;20466;-80
2023/05/10 10:22:31;;;;;;;28.90;26.33;;;;;;;;;;5083005;28;20426;-79
2023/05/10 10:25:00;;;;;;;27.47;25.33;;;;;;;;;;5081544;28;20485;-80
2023/05/10 10:27:30;;;;;;;27.70;25.60;;;;;;;;;;5084205;28;20525;-80
2023/05/10 10:30:02;;;;;;;28.30;26.30;;;;;;;;;;5085624;28;20551;-83
2023/05/10 10:32:34;;;;;;;28.17;25.97;;;;;;;;;;5083886;28;20472;-82
2023/05/10 10:35:02;;;;;;;29.33;26.93;;;;;;;;;;5081804;28;20445;-80
2023/05/10 10:37:43;;;;;;;28.00;26.00;;;;;;;;;;5082028;28;20413;-80
2023/05/10 10:40:25;;;;;;;28.50;26.37;;;;;;;;;;5081313;28;20465;-80
2023/05/10 10:42:54;;;;;;;28.07;25.77;;;;;;;;;;5081901;28;20409;-79
2023/05/10 10:45:22;;;;;;;27.20;25.20;;;;;;;;;;5082091;28;20482;-82
2023/05/10 10:47:49;;;;;;;26.40;24.53;;;;;;;;;;5081847;28;20986;-80
2023/05/10 10:50:16;;;;;;;28.60;26.17;;;;;;;;;;5083158;28;20463;-80
2023/05/10 10:52:44;;;;;;;25.43;23.63;;;;;;;;;;5083061;28;20430;-79
2023/05/10 10:55:12;;;;;;;25.77;23.87;;;;;;;;;;5083107;28;20857;-79
2023/05/10 10:57:47;;;;;;;25.97;24.10;;;;;;;;;;5081607;28;20429;-80
2023/05/10 11:00:30;;;;;;;25.63;23.63;;;;;;;;;;5080972;28;20452;-79
2023/05/10 11:03:00;;;;;;;25.97;24.20;;;;;;;;;;5085902;28;20478;-80
2023/05/10 11:05:35;;;;;;;25.67;23.87;;;;;;;;;;5084927;28;20488;-78
2023/05/10 11:08:08;;;;;;;25.50;23.73;;;;;;;;;;5084329;28;20523;-80
2023/05/10 11:10:35;;;;;;;25.10;23.00;;;;;;;;;;5083864;28;20489;-80
2023/05/10 11:13:04;;;;;;;25.00;23.47;;;;;;;;;;5087517;28;20936;-79
2023/05/10 11:15:33;;;;;;;26.07;24.07;;;;;;;;;;5085757;28;20414;-79
2023/05/10 11:18:00;;;;;;;23.83;22.30;;;;;;;;;;5085127;28;20483;-79
2023/05/10 11:20:33;;;;;;;23.30;21.80;;;;;;;;;;5085829;28;20449;-79
2023/05/10 11:23:12;;;;;;;24.10;22.30;;;;;;;;;;5086762;28;20546;-80
2023/05/10 11:25:42;;;;;;;25.03;23.33;;;;;;;;;;5084455;28;20476;-80
2023/05/10 11:28:09;;;;;;;23.37;21.93;;;;;;;;;;5086255;28;20437;-80
2023/05/10 11:30:37;;;;;;;25.80;24.10;;;;;;;;;;5086142;28;20496;-80
2023/05/10 11:33:04;;;;;;;24.77;22.80;;;;;;;;;;5086655;28;20429;-80
2023/05/10 11:35:31;;;;;;;25.50;23.70;;;;;;;;;;5085562;28;20451;-78
2023/05/10 11:37:58;;;;;;;24.37;22.67;;;;;;;;;;5086114;28;20857;-79
2023/05/10 11:40:26;;;;;;;24.87;23.17;;;;;;;;;;5085904;28;20441;-80
2023/05/10 11:42:53;;;;;;;23.87;22.17;;;;;;;;;;5084920;28;20443;-79
2023/05/10 11:45:21;;;;;;;24.67;23.17;;;;;;;;;;5086111;28;20542;-79
2023/05/10 11:47:51;;;;;;;24.80;23.20;;;;;;;;;;5084367;28;20426;-79
2023/05/10 11:50:18;;;;;;;25.80;23.80;;;;;;;;;;5084917;28;20470;-81
2023/05/10 11:52:45;;;;;;;25.77;23.87;;;;;;;;;;5084032;28;20470;-80
2023/05/10 11:55:13;;;;;;;25.73;23.60;;;;;;;;;;5085249;28;20493;-79
2023/05/10 11:57:42;;;;;;;26.30;24.50;;;;;;;;;;5084509;28;20447;-79
2023/05/10 12:00:09;;;;;;;26.23;24.20;;;;;;;;;;5083407;28;20454;-79
2023/05/10 12:02:36;;;;;;;25.90;24.00;;;;;;;;;;5083695;28;20470;-80
2023/05/10 12:05:05;;;;;;;27.37;25.17;;;;;;;;;;5083173;28;20503;-79
2023/05/10 12:07:32;;;;;;;60.10;54.97;;;;;;;;;;5082743;28;20440;-79
2023/05/10 12:10:10;;;;;;;59.53;54.83;;;;;;;;;;5083274;28;20469;-79
2023/05/10 12:12:38;;;;;;;36.57;33.27;;;;;;;;;;5080782;28;20456;-79
2023/05/10 12:15:06;;;;;;;31.90;29.13;;;;;;;;;;5081771;28;20466;-79
2023/05/10 12:17:33;;;;;;;34.63;31.33;;;;;;;;;;5081189;28;20455;-81
2023/05/10 12:20:00;;;;;;;33.67;30.10;;;;;;;;;;5088955;28;20450;-80
2023/05/10 12:22:28;;;;;;;35.83;32.10;;;;;;;;;;5097000;28;20443;-81
2023/05/10 12:24:55;;;;;;;30.67;27.67;;;;;;;;;;5097844;28;20477;-81
2023/05/10 12:27:22;;;;;;;32.87;29.77;;;;;;;;;;5091738;28;20492;-81
2023/05/10 12:29:49;;;;;;;32.77;29.67;;;;;;;;;;5085145;28;20495;-81
2023/05/10 12:32:16;;;;;;;30.53;27.80;;;;;;;;;;5085058;28;20454;-81
2023/05/10 12:34:43;;;;;;;33.73;30.17;;;;;;;;;;5084383;28;20839;-82
2023/05/10 12:37:13;;;;;;;33.60;30.30;;;;;;;;;;5083761;28;20450;-81
2023/05/10 12:39:43;;;;;;;31.43;28.70;;;;;;;;;;5079011;28;20455;-79
2023/05/10 12:42:10;;;;;;;34.20;31.30;;;;;;;;;;5077711;28;20451;-81
2023/05/10 12:44:37;;;;;;;32.60;29.50;;;;;;;;;;5077457;28;20448;-81
2023/05/10 12:47:04;;;;;;;32.13;29.17;;;;;;;;;;5077950;28;20443;-81
2023/05/10 12:49:31;;;;;;;35.67;31.30;;;;;;;;;;5078953;28;20446;-80
2023/05/10 12:51:58;;;;;;;31.57;28.77;;;;;;;;;;5080894;28;20438;-82
2023/05/10 12:54:25;;;;;;;33.00;29.70;;;;;;;;;;5085025;28;20450;-81
2023/05/10 12:56:54;;;;;;;33.60;30.30;;;;;;;;;;5082352;28;20449;-80
2023/05/10 12:59:21;;;;;;;33.63;30.37;;;;;;;;;;5081491;28;20585;-79
2023/05/10 13:01:47;;;;;;;34.70;31.33;;;;;;;;;;5081334;28;20449;-80
2023/05/10 13:04:14;;;;;;;34.50;31.20;;;;;;;;;;5079578;28;20452;-80
2023/05/10 13:06:41;;;;;;;32.60;29.50;;;;;;;;;;5078853;28;20469;-79
2023/05/10 13:09:08;;;;;;;33.27;30.23;;;;;;;;;;5080956;28;20520;-79
2023/05/10 13:11:36;;;;;;;32.37;29.37;;;;;;;;;;5079052;28;20538;-77
2023/05/10 13:14:04;;;;;;;30.50;27.63;;;;;;;;;;5081766;28;20424;-78
2023/05/10 13:16:31;;;;;;;29.03;26.53;;;;;;;;;;5078949;28;20480;-79
2023/05/10 13:18:58;;;;;;;28.80;26.30;;;;;;;;;;5078382;28;20823;-78
2023/05/10 13:21:26;;;;;;;31.57;28.67;;;;;;;;;;5078436;28;20508;-78
2023/05/10 13:23:53;;;;;;;33.47;30.27;;;;;;;;;;5078594;28;20953;-79
2023/05/10 13:26:21;;;;;;;32.60;29.50;;;;;;;;;;5078527;28;20479;-78
2023/05/10 13:28:48;;;;;;;30.73;27.87;;;;;;;;;;5078372;28;20429;-79
2023/05/10 13:31:16;;;;;;;30.57;27.33;;;;;;;;;;5078462;28;20464;-78
2023/05/10 13:33:43;;;;;;;29.97;27.07;;;;;;;;;;5076412;28;20474;-78
2023/05/10 13:36:10;;;;;;;30.33;27.33;;;;;;;;;;5075300;28;20484;-79
2023/05/10 13:38:37;;;;;;;25.77;23.67;;;;;;;;;;5075118;28;20470;-78
2023/05/10 13:41:05;;;;;;;20.70;19.00;;;;;;;;;;5076876;28;20490;-78
2023/05/10 13:43:32;;;;;;;21.90;20.27;;;;;;;;;;5077390;28;20425;-79
2023/05/10 13:45:59;;;;;;;22.70;20.80;;;;;;;;;;5080467;28;20493;-79
2023/05/10 13:48:28;;;;;;;22.50;20.70;;;;;;;;;;5081753;28;20918;-79
2023/05/10 13:50:55;;;;;;;23.70;21.90;;;;;;;;;;5080354;28;20473;-79
2023/05/10 13:53:22;;;;;;;25.77;23.63;;;;;;;;;;5081153;28;20473;-79
2023/05/10 13:55:49;;;;;;;25.20;23.20;;;;;;;;;;5079930;28;20420;-79
2023/05/10 13:58:16;;;;;;;27.13;24.67;;;;;;;;;;5080678;28;20870;-79
2023/05/10 14:00:43;;;;;;;25.07;23.17;;;;;;;;;;5079983;28;20467;-79
2023/05/10 14:03:10;;;;;;;27.23;24.90;;;;;;;;;;5080279;28;20425;-79
2023/05/10 14:05:39;;;;;;;29.23;26.60;;;;;;;;;;5078851;28;20876;-78
2023/05/10 14:08:07;;;;;;;29.20;26.70;;;;;;;;;;5081390;28;20417;-79
2023/05/10 14:10:34;;;;;;;29.57;26.63;;;;;;;;;;5080412;28;20984;-79
2023/05/10 14:13:01;;;;;;;27.23;25.20;;;;;;;;;;5079942;28;20518;-79
2023/05/10 14:15:28;;;;;;;27.53;25.03;;;;;;;;;;5079557;28;20432;-79
2023/05/10 14:17:55;;;;;;;29.53;27.10;;;;;;;;;;5080419;28;20510;-79
2023/05/10 14:20:22;;;;;;;27.70;25.10;;;;;;;;;;5083603;28;20480;-81